createdAt,value
2018-03-19T00:00:40.797Z,63.90
2018-03-19T00:03:08.367Z,63.90
2018-03-19T00:05:35.936Z,63.90
2018-03-19T00:08:03.502Z,63.90
2018-03-19T00:10:31.171Z,63.90
2018-03-19T00:12:59.505Z,64.00
2018-03-19T00:15:27.105Z,63.90
2018-03-19T00:17:54.779Z,63.90
2018-03-19T00:20:23.168Z,64.10
2018-03-19T00:22:50.821Z,63.90
2018-03-19T00:25:19.159Z,63.90
2018-03-19T00:27:46.906Z,63.90
2018-03-19T00:30:14.481Z,63.90
2018-03-19T00:32:42.085Z,63.90
2018-03-19T00:35:10.457Z,63.90
2018-03-19T00:37:38.800Z,63.90
2018-03-19T00:40:06.379Z,63.90
2018-03-19T00:42:33.990Z,64.00
2018-03-19T00:45:01.577Z,64.10
2018-03-19T00:47:29.157Z,64.00
2018-03-19T00:49:56.757Z,64.00
2018-03-19T00:52:25.124Z,64.10
2018-03-19T00:54:52.790Z,64.00
2018-03-19T00:57:21.129Z,64.10
2018-03-19T00:59:48.751Z,64.10
2018-03-19T01:02:16.357Z,64.10
2018-03-19T01:04:43.928Z,63.90
2018-03-19T01:07:11.514Z,64.10
2018-03-19T01:09:39.855Z,64.10
2018-03-19T01:12:07.449Z,64.00
2018-03-19T01:14:35.114Z,64.10
2018-03-19T01:17:02.775Z,64.10
2018-03-19T01:19:30.443Z,64.00
2018-03-19T01:21:58.776Z,64.00
2018-03-19T01:24:26.344Z,64.00
2018-03-19T01:26:54.046Z,64.00
2018-03-19T01:29:22.532Z,64.00
2018-03-19T01:31:50.950Z,64.00
2018-03-19T01:34:19.253Z,64.00
2018-03-19T01:36:47.042Z,64.00
2018-03-19T01:39:14.719Z,64.00
2018-03-19T01:41:43.097Z,64.00
2018-03-19T01:44:11.440Z,64.00
2018-03-19T01:46:39.135Z,64.00
2018-03-19T01:49:06.709Z,64.00
2018-03-19T01:51:35.181Z,63.90
2018-03-19T01:54:03.539Z,64.00
2018-03-19T01:56:31.121Z,64.00
2018-03-19T01:58:59.513Z,64.00
2018-03-19T02:01:27.865Z,64.00
2018-03-19T02:03:55.441Z,63.90
2018-03-19T02:06:23.021Z,63.90
2018-03-19T02:08:50.668Z,64.00
2018-03-19T02:11:19.069Z,63.90
2018-03-19T02:13:46.868Z,63.90
2018-03-19T02:16:14.439Z,63.90
2018-03-19T02:18:42.044Z,64.00
2018-03-19T02:21:10.416Z,63.90
2018-03-19T02:23:38.793Z,64.00
2018-03-19T02:26:07.136Z,64.40
2018-03-19T02:28:34.738Z,64.00
2018-03-19T02:31:03.110Z,64.00
2018-03-19T02:33:31.498Z,64.00
2018-03-19T02:35:59.876Z,64.00
2018-03-19T02:38:28.249Z,64.00
2018-03-19T02:40:55.913Z,64.00
2018-03-19T02:43:23.488Z,64.00
2018-03-19T02:45:51.818Z,63.90
2018-03-19T02:48:19.434Z,63.90
2018-03-19T02:50:47.325Z,64.00
2018-03-19T02:53:14.953Z,64.00
2018-03-19T02:55:42.618Z,64.00
2018-03-19T02:58:10.956Z,64.00
2018-03-19T03:00:38.549Z,64.00
2018-03-19T03:03:06.114Z,64.00
2018-03-19T03:05:34.444Z,64.00
2018-03-19T03:08:02.046Z,64.00
2018-03-19T03:10:30.438Z,64.00
2018-03-19T03:12:58.781Z,64.00
2018-03-19T03:15:26.353Z,64.00
2018-03-19T03:17:54.755Z,64.00
2018-03-19T03:20:23.086Z,64.00
2018-03-19T03:22:50.661Z,64.00
2018-03-19T03:25:18.255Z,64.00
2018-03-19T03:27:47.613Z,64.00
2018-03-19T03:30:15.364Z,64.00
2018-03-19T03:32:42.982Z,64.00
2018-03-19T03:35:11.357Z,64.00
2018-03-19T03:37:38.933Z,63.90
2018-03-19T03:40:07.271Z,64.00
2018-03-19T03:42:34.863Z,64.00
2018-03-19T03:45:03.251Z,64.00
2018-03-19T03:47:31.621Z,64.00
2018-03-19T03:49:59.975Z,64.00
2018-03-19T03:52:27.557Z,63.90
2018-03-19T03:54:55.127Z,64.00
2018-03-19T03:57:23.484Z,64.00
2018-03-19T03:59:51.167Z,64.00
2018-03-19T04:02:19.570Z,64.00
2018-03-19T04:04:47.248Z,64.00
2018-03-19T04:07:14.874Z,63.90
2018-03-19T04:09:43.218Z,64.00
2018-03-19T04:12:10.809Z,64.00
2018-03-19T04:14:39.186Z,64.10
2018-03-19T04:17:06.851Z,64.10
2018-03-19T04:19:34.442Z,64.70
2018-03-19T04:22:02.074Z,64.80
2018-03-19T04:24:29.746Z,64.00
2018-03-19T04:26:58.121Z,64.10
2018-03-19T04:29:26.594Z,64.10
2018-03-19T04:31:54.169Z,64.10
2018-03-19T04:34:22.662Z,64.10
2018-03-19T04:36:51.026Z,64.10
2018-03-19T04:39:19.406Z,63.90
2018-03-19T04:41:47.894Z,64.10
2018-03-19T04:44:16.276Z,63.90
2018-03-19T04:46:44.639Z,64.00
2018-03-19T04:49:12.205Z,64.00
2018-03-19T04:51:39.773Z,63.90
2018-03-19T04:54:08.116Z,64.00
2018-03-19T04:56:35.710Z,64.00
2018-03-19T04:59:04.094Z,64.00
2018-03-19T05:01:32.465Z,64.10
2018-03-19T05:04:00.118Z,64.10
2018-03-19T05:06:27.709Z,64.00
2018-03-19T05:08:56.095Z,64.00
2018-03-19T05:11:23.741Z,64.00
2018-03-19T05:13:52.265Z,64.00
2018-03-19T05:16:19.845Z,63.90
2018-03-19T05:18:47.436Z,64.00
2018-03-19T05:21:15.328Z,64.10
2018-03-19T05:23:43.046Z,63.90
2018-03-19T05:26:10.699Z,64.00
2018-03-19T05:28:38.308Z,64.00
2018-03-19T05:31:06.661Z,64.10
2018-03-19T05:33:34.283Z,64.10
2018-03-19T05:36:01.935Z,64.70
2018-03-19T05:38:29.557Z,64.00
2018-03-19T05:40:57.249Z,64.10
2018-03-19T05:43:24.912Z,64.10
2018-03-19T05:45:52.499Z,64.10
2018-03-19T05:48:20.110Z,64.00
2018-03-19T05:50:48.051Z,63.90
2018-03-19T05:53:15.838Z,64.00
2018-03-19T05:55:43.417Z,64.00
2018-03-19T05:58:11.793Z,64.00
2018-03-19T06:00:40.131Z,64.00
2018-03-19T06:03:07.726Z,64.00
2018-03-19T06:05:35.408Z,63.90
2018-03-19T06:08:03.062Z,64.00
2018-03-19T06:10:34.186Z,64.00
2018-03-19T06:13:01.768Z,64.00
2018-03-19T06:15:30.100Z,64.00
2018-03-19T06:17:57.697Z,64.00
2018-03-19T06:20:25.268Z,64.00
2018-03-19T06:22:53.619Z,64.00
2018-03-19T06:25:21.211Z,64.00
2018-03-19T06:27:49.567Z,64.00
2018-03-19T06:30:17.329Z,64.00
2018-03-19T06:32:44.907Z,64.00
2018-03-19T06:35:13.291Z,64.00
2018-03-19T06:37:41.635Z,64.00
2018-03-19T06:40:09.252Z,64.00
2018-03-19T06:42:36.904Z,64.00
2018-03-19T06:45:05.273Z,64.00
2018-03-19T06:47:33.657Z,64.10
2018-03-19T06:50:02.037Z,64.00
2018-03-19T06:52:30.371Z,64.00
2018-03-19T06:54:57.944Z,64.00
2018-03-19T06:57:25.636Z,64.00
2018-03-19T06:59:54.027Z,64.00
2018-03-19T07:02:21.688Z,64.00
2018-03-19T07:04:50.051Z,63.50
2018-03-19T07:07:17.723Z,64.00
2018-03-19T07:09:46.279Z,64.00
2018-03-19T07:12:13.854Z,64.00
2018-03-19T07:14:41.538Z,63.80
2018-03-19T07:17:09.879Z,63.80
2018-03-19T07:19:37.449Z,63.80
2018-03-19T07:22:05.124Z,63.70
2018-03-19T07:24:32.791Z,63.70
2018-03-19T07:27:01.146Z,63.80
2018-03-19T07:29:28.738Z,63.50
2018-03-19T07:31:57.092Z,63.80
2018-03-19T07:34:24.669Z,63.80
2018-03-19T07:36:53.050Z,63.70
2018-03-19T07:39:21.390Z,63.80
2018-03-19T07:41:48.993Z,63.80
2018-03-19T07:44:17.365Z,63.80
2018-03-19T07:46:44.930Z,63.70
2018-03-19T07:49:14.112Z,63.40
2018-03-19T07:51:41.683Z,63.50
2018-03-19T07:54:09.260Z,63.30
2018-03-19T07:56:37.632Z,63.30
2018-03-19T07:59:05.975Z,63.20
2018-03-19T08:01:33.552Z,63.20
2018-03-19T08:04:01.129Z,63.10
2018-03-19T08:06:28.785Z,63.00
2018-03-19T08:08:56.370Z,62.90
2018-03-19T08:11:24.735Z,62.90
2018-03-19T08:13:53.112Z,63.80
2018-03-19T08:16:20.780Z,62.80
2018-03-19T08:18:49.110Z,63.00
2018-03-19T08:21:16.943Z,62.90
2018-03-19T08:23:44.593Z,62.70
2018-03-19T08:26:12.944Z,62.70
2018-03-19T08:28:40.532Z,62.60
2018-03-19T08:31:08.880Z,62.70
2018-03-19T08:33:36.462Z,62.60
2018-03-19T08:36:04.144Z,62.50
2018-03-19T08:38:32.411Z,62.60
2018-03-19T08:41:00.752Z,62.60
2018-03-19T08:43:28.331Z,62.60
2018-03-19T08:45:56.014Z,62.60
2018-03-19T08:48:24.357Z,62.60
2018-03-19T08:50:51.933Z,62.60
2018-03-19T08:53:19.509Z,62.50
2018-03-19T08:55:47.262Z,62.60
2018-03-19T08:58:15.852Z,62.40
2018-03-19T09:00:43.531Z,62.50
2018-03-19T09:03:11.869Z,62.60
2018-03-19T09:05:39.459Z,62.40
2018-03-19T09:08:07.137Z,62.50
2018-03-19T09:10:35.510Z,62.50
2018-03-19T09:13:03.902Z,62.40
2018-03-19T09:15:32.291Z,62.40
2018-03-19T09:17:59.884Z,62.40
2018-03-19T09:20:27.485Z,62.40
2018-03-19T09:22:55.051Z,63.20
2018-03-19T09:25:23.403Z,63.40
2018-03-19T09:27:50.988Z,62.50
2018-03-19T09:30:19.377Z,62.70
2018-03-19T09:32:47.725Z,62.60
2018-03-19T09:35:15.793Z,62.60
2018-03-19T09:37:43.334Z,62.60
2018-03-19T09:40:10.912Z,62.60
2018-03-19T09:42:38.514Z,62.60
2018-03-19T09:45:06.881Z,62.60
2018-03-19T09:47:35.062Z,62.60
2018-03-19T09:50:03.395Z,62.70
2018-03-19T09:52:31.007Z,62.70
2018-03-19T09:54:59.393Z,62.80
2018-03-19T09:57:27.762Z,63.60
2018-03-19T09:59:56.136Z,62.90
2018-03-19T10:02:23.711Z,62.90
2018-03-19T10:04:51.299Z,62.40
2018-03-19T10:07:18.870Z,62.90
2018-03-19T10:09:46.581Z,63.00
2018-03-19T10:12:14.256Z,63.00
2018-03-19T10:14:42.602Z,63.20
2018-03-19T10:17:10.182Z,63.20
2018-03-19T10:19:39.343Z,63.10
2018-03-19T10:22:07.060Z,63.50
2018-03-19T10:24:35.399Z,63.20
2018-03-19T10:27:02.974Z,63.20
2018-03-19T10:29:30.559Z,63.20
2018-03-19T10:31:58.896Z,63.40
2018-03-19T10:34:26.474Z,63.40
2018-03-19T10:36:54.157Z,63.40
2018-03-19T10:39:22.538Z,63.80
2018-03-19T10:41:50.925Z,63.60
2018-03-19T10:44:19.262Z,63.50
2018-03-19T10:46:47.057Z,63.50
2018-03-19T10:49:14.737Z,63.60
2018-03-19T10:51:43.100Z,63.80
2018-03-19T10:54:12.318Z,63.70
2018-03-19T10:56:40.648Z,63.80
2018-03-19T10:59:08.221Z,63.80
2018-03-19T11:01:41.522Z,63.70
2018-03-19T11:04:11.072Z,63.80
2018-03-19T11:09:46.523Z,63.80
2018-03-19T11:12:15.750Z,64.10
2018-03-19T11:14:43.369Z,64.10
2018-03-19T11:17:10.937Z,64.00
2018-03-19T11:19:39.321Z,64.20
2018-03-19T11:22:07.697Z,64.10
2018-03-19T11:24:36.081Z,64.00
2018-03-19T11:27:04.457Z,64.20
2018-03-19T11:29:32.837Z,64.20
2018-03-19T11:32:01.216Z,64.30
2018-03-19T11:34:29.606Z,64.30
2018-03-19T11:36:57.978Z,64.30
2018-03-19T11:39:26.334Z,64.40
2018-03-19T11:41:54.042Z,64.20
2018-03-19T11:44:22.379Z,64.30
2018-03-19T11:46:50.055Z,64.20
2018-03-19T11:49:18.405Z,64.40
2018-03-19T11:51:46.173Z,64.40
2018-03-19T11:54:13.763Z,64.40
2018-03-19T11:56:41.338Z,64.40
2018-03-19T11:59:09.705Z,64.40
2018-03-19T12:01:38.088Z,64.50
2018-03-19T12:04:06.426Z,64.40
2018-03-19T12:06:34.008Z,64.40
2018-03-19T12:09:01.581Z,64.40
2018-03-19T12:11:29.159Z,65.30
2018-03-19T12:13:57.494Z,64.50
2018-03-19T12:16:25.067Z,64.50
2018-03-19T12:18:52.640Z,64.50
2018-03-19T12:21:20.326Z,64.50
2018-03-19T12:23:48.657Z,64.60
2018-03-19T12:26:16.250Z,64.60
2018-03-19T12:28:44.633Z,64.70
2018-03-19T12:31:12.981Z,64.60
2018-03-19T12:33:40.544Z,64.50
2018-03-19T12:36:08.128Z,64.60
2018-03-19T12:38:35.698Z,64.50
2018-03-19T12:41:04.047Z,64.70
2018-03-19T12:43:31.629Z,64.70
2018-03-19T12:45:59.975Z,65.00
2018-03-19T12:48:27.577Z,64.70
2018-03-19T12:50:55.931Z,64.70
2018-03-19T12:53:24.144Z,64.70
2018-03-19T12:55:51.797Z,64.70
2018-03-19T12:58:20.133Z,64.80
2018-03-19T13:00:47.730Z,64.70
2018-03-19T13:03:16.184Z,65.40
2018-03-19T13:05:43.795Z,64.80
2018-03-19T13:08:11.427Z,64.80
2018-03-19T13:10:39.005Z,64.80
2018-03-19T13:13:07.385Z,64.70
2018-03-19T13:15:35.758Z,64.80
2018-03-19T13:18:04.142Z,64.80
2018-03-19T13:20:32.531Z,64.80
2018-03-19T13:23:00.870Z,64.80
2018-03-19T13:25:28.464Z,64.80
2018-03-19T13:27:56.928Z,64.60
2018-03-19T13:30:24.519Z,64.60
2018-03-19T13:32:52.096Z,65.20
2018-03-19T13:35:19.723Z,64.70
2018-03-19T13:37:48.103Z,64.80
2018-03-19T13:40:16.594Z,65.60
2018-03-19T13:42:44.948Z,64.80
2018-03-19T13:45:12.526Z,64.70
2018-03-19T13:47:40.862Z,64.80
2018-03-19T13:50:08.436Z,64.70
2018-03-19T13:52:36.038Z,64.70
2018-03-19T13:55:03.638Z,64.80
2018-03-19T13:57:31.368Z,64.70
2018-03-19T13:59:59.730Z,64.70
2018-03-19T14:02:28.121Z,65.00
2018-03-19T14:04:56.474Z,64.60
2018-03-19T14:07:24.160Z,64.60
2018-03-19T14:09:52.500Z,64.60
2018-03-19T14:12:20.087Z,64.50
2018-03-19T14:14:48.478Z,64.60
2018-03-19T14:17:16.980Z,64.60
2018-03-19T14:19:44.624Z,65.40
2018-03-19T14:22:12.955Z,64.60
2018-03-19T14:24:40.553Z,64.60
2018-03-19T14:27:08.130Z,64.60
2018-03-19T14:29:36.477Z,64.70
2018-03-19T14:32:04.054Z,64.60
2018-03-19T14:34:31.623Z,64.60
2018-03-19T14:36:59.964Z,64.70
2018-03-19T14:39:27.576Z,64.60
2018-03-19T14:41:55.140Z,64.60
2018-03-19T14:44:23.493Z,64.60
2018-03-19T14:46:51.073Z,64.60
2018-03-19T14:49:19.409Z,64.70
2018-03-19T14:51:47.312Z,64.60
2018-03-19T14:54:16.014Z,64.60
2018-03-19T14:56:44.377Z,64.70
2018-03-19T14:59:12.714Z,64.70
2018-03-19T15:01:40.285Z,64.60
2018-03-19T15:04:07.874Z,64.70
2018-03-19T15:06:35.547Z,64.60
2018-03-19T15:09:03.882Z,64.60
2018-03-19T15:11:31.484Z,64.60
2018-03-19T15:13:59.860Z,64.70
2018-03-19T15:16:28.237Z,65.30
2018-03-19T15:18:55.816Z,64.60
2018-03-19T15:21:24.160Z,64.60
2018-03-19T15:23:51.841Z,64.60
2018-03-19T15:26:19.505Z,64.70
2018-03-19T15:28:47.270Z,65.50
2018-03-19T15:31:15.979Z,65.30
2018-03-19T15:33:44.300Z,64.70
2018-03-19T15:36:11.873Z,64.70
2018-03-19T15:38:39.465Z,64.70
2018-03-19T15:41:07.810Z,64.80
2018-03-19T15:43:35.405Z,64.70
2018-03-19T15:46:03.746Z,64.70
2018-03-19T15:48:31.313Z,64.80
2018-03-19T15:50:58.893Z,64.70
2018-03-19T15:53:26.566Z,64.70
2018-03-19T15:55:54.945Z,64.80
2018-03-19T15:58:23.296Z,64.80
2018-03-19T16:00:50.917Z,64.80
2018-03-19T16:03:18.549Z,64.80
2018-03-19T16:05:47.205Z,64.80
2018-03-19T16:08:14.773Z,64.80
2018-03-19T16:10:42.429Z,64.80
2018-03-19T16:13:10.014Z,64.80
2018-03-19T16:15:38.480Z,64.80
2018-03-19T16:18:06.058Z,64.80
2018-03-19T16:20:34.401Z,64.90
2018-03-19T16:23:02.015Z,64.80
2018-03-19T16:25:30.352Z,64.80
2018-03-19T16:27:58.040Z,64.80
2018-03-19T16:30:26.388Z,65.10
2018-03-19T16:32:54.150Z,64.80
2018-03-19T16:35:21.800Z,64.80
2018-03-19T16:37:49.392Z,65.60
2018-03-19T16:40:18.127Z,64.80
2018-03-19T16:42:46.135Z,64.80
2018-03-19T16:45:13.713Z,64.80
2018-03-19T16:47:41.288Z,64.80
2018-03-19T16:50:08.970Z,64.90
2018-03-19T16:52:37.456Z,64.90
2018-03-19T16:55:05.109Z,64.90
2018-03-19T16:57:33.706Z,64.90
2018-03-19T17:00:01.344Z,64.80
2018-03-19T17:02:29.728Z,65.30
2018-03-19T17:04:58.219Z,65.00
2018-03-19T17:07:26.588Z,64.80
2018-03-19T17:09:54.946Z,64.80
2018-03-19T17:12:22.530Z,64.80
2018-03-19T17:14:50.107Z,64.80
2018-03-19T17:17:18.443Z,65.00
2018-03-19T17:19:46.228Z,64.90
2018-03-19T17:22:13.800Z,64.90
2018-03-19T17:24:42.142Z,65.70
2018-03-19T17:27:11.824Z,65.00
2018-03-19T17:29:42.234Z,64.90
2018-03-19T17:32:10.021Z,65.00
2018-03-19T17:34:37.812Z,65.00
2018-03-19T17:37:05.538Z,64.90
2018-03-19T17:39:33.196Z,64.90
2018-03-19T17:42:00.801Z,64.90
2018-03-19T17:44:28.606Z,64.90
2018-03-19T17:46:57.092Z,65.00
2018-03-19T17:49:25.448Z,65.00
2018-03-19T17:51:53.134Z,65.00
2018-03-19T17:54:22.614Z,65.00
2018-03-19T17:56:50.299Z,64.90
2018-03-19T17:59:18.635Z,65.00
2018-03-19T18:01:46.235Z,65.00
2018-03-19T18:04:13.992Z,64.90
2018-03-19T18:06:42.357Z,58.00
2018-03-19T18:09:09.956Z,58.10
2018-03-19T18:11:38.335Z,57.00
2018-03-19T18:15:51.010Z,56.90
2018-03-19T18:18:18.600Z,56.90
2018-03-19T18:20:46.225Z,56.70
2018-03-19T18:23:13.952Z,57.10
2018-03-19T18:25:41.605Z,56.70
2018-03-19T18:28:09.997Z,56.10
2018-03-19T18:30:37.626Z,56.10
2018-03-19T18:33:06.453Z,55.90
2018-03-19T18:35:34.113Z,55.80
2018-03-19T18:38:01.778Z,55.80
2018-03-19T18:40:29.387Z,55.70
2018-03-19T18:42:57.002Z,55.60
2018-03-19T18:45:25.695Z,55.60
2018-03-19T18:47:53.381Z,55.60
2018-03-19T18:50:22.253Z,55.50
2018-03-19T18:52:50.097Z,55.50
2018-03-19T18:55:18.471Z,55.40
2018-03-19T18:57:47.278Z,55.40
2018-03-19T19:00:16.208Z,55.40
2018-03-19T19:02:43.843Z,55.40
2018-03-19T19:05:13.098Z,55.40
2018-03-19T19:07:41.821Z,55.50
2018-03-19T19:10:09.455Z,55.40
2018-03-19T19:12:37.065Z,55.40
2018-03-19T19:15:05.218Z,55.40
2018-03-19T19:17:33.071Z,55.40
2018-03-19T19:20:01.413Z,55.60
2018-03-19T19:22:29.028Z,55.60
2018-03-19T19:24:56.897Z,55.30
2018-03-19T19:27:24.805Z,55.50
2018-03-19T19:29:52.498Z,55.40
2018-03-19T19:32:20.917Z,55.50
2018-03-19T19:34:49.720Z,55.40
2018-03-19T19:37:17.923Z,55.50
2018-03-19T19:39:45.536Z,55.60
2018-03-19T19:42:14.072Z,55.50
2018-03-19T19:44:41.661Z,55.50
2018-03-19T19:47:09.247Z,55.60
2018-03-19T19:49:36.827Z,55.70
2018-03-19T19:52:04.456Z,55.70
2018-03-19T19:54:32.805Z,55.80
2018-03-19T19:57:00.384Z,55.70
2018-03-19T19:59:28.793Z,55.80
2018-03-19T20:01:56.946Z,55.80
2018-03-19T20:04:25.329Z,55.80
2018-03-19T20:06:53.889Z,55.70
2018-03-19T20:09:22.260Z,55.70
2018-03-19T20:11:49.955Z,55.70
2018-03-19T20:14:18.332Z,55.80
2018-03-19T20:16:49.806Z,55.80
2018-03-19T20:19:18.048Z,55.70
2018-03-19T20:21:48.953Z,55.70
2018-03-19T20:24:17.501Z,55.70
2018-03-19T20:26:45.782Z,55.70
2018-03-19T20:29:15.387Z,55.60
2018-03-19T20:31:43.973Z,55.70
2018-03-19T20:34:11.864Z,55.70
2018-03-19T20:36:39.824Z,55.70
2018-03-19T20:39:07.859Z,56.10
2018-03-19T20:41:35.768Z,56.70
2018-03-19T20:44:03.472Z,57.20
2018-03-19T20:46:31.388Z,57.90
2018-03-19T20:48:59.252Z,58.40
2018-03-19T20:51:27.118Z,59.00
2018-03-19T20:53:54.984Z,59.40
2018-03-19T20:56:22.801Z,59.70
2018-03-19T20:58:50.825Z,60.10
2018-03-19T21:01:18.694Z,60.50
2018-03-19T21:03:46.441Z,60.80
2018-03-19T21:06:15.333Z,61.20
2018-03-19T21:08:43.256Z,61.50
2018-03-19T21:11:11.090Z,61.80
2018-03-19T21:13:38.885Z,62.10
2018-03-19T21:16:07.685Z,62.30
2018-03-19T21:18:35.616Z,62.60
2018-03-19T21:21:03.513Z,62.80
2018-03-19T21:23:31.960Z,62.90
2018-03-19T21:25:59.829Z,63.10
2018-03-19T21:28:28.414Z,63.50
2018-03-19T21:30:56.178Z,63.30
2018-03-19T21:33:24.443Z,63.50
2018-03-19T21:35:52.788Z,63.70
2018-03-19T21:38:20.382Z,63.70
2018-03-19T21:40:48.733Z,63.90
2018-03-19T21:43:16.322Z,63.80
2018-03-19T21:45:44.662Z,64.00
2018-03-19T21:48:12.243Z,64.00
2018-03-19T21:50:39.935Z,64.00
2018-03-19T21:53:08.268Z,64.20
2018-03-19T21:55:35.842Z,64.10
2018-03-19T21:58:04.176Z,64.10
2018-03-19T22:00:31.756Z,64.10
2018-03-19T22:02:59.325Z,64.10
2018-03-19T22:05:26.902Z,64.20
2018-03-19T22:07:54.481Z,64.20
2018-03-19T22:10:22.072Z,64.20
2018-03-19T22:12:49.708Z,65.10
2018-03-19T22:15:17.374Z,64.30
2018-03-19T22:17:45.899Z,64.40
2018-03-19T22:20:14.197Z,64.40
2018-03-19T22:22:41.777Z,64.30
2018-03-19T22:25:10.118Z,64.40
2018-03-19T22:27:37.688Z,64.40
2018-03-19T22:30:05.261Z,64.40
2018-03-19T22:32:32.858Z,64.40
2018-03-19T22:35:01.318Z,64.50
2018-03-19T22:37:28.892Z,64.30
2018-03-19T22:39:56.464Z,64.40
2018-03-19T22:42:24.809Z,64.40
2018-03-19T22:44:52.377Z,64.40
2018-03-19T22:47:19.987Z,64.40
2018-03-19T22:49:47.579Z,64.40
2018-03-19T22:52:15.336Z,64.50
2018-03-19T22:54:42.917Z,64.50
2018-03-19T22:57:10.514Z,64.50
2018-03-19T22:59:38.888Z,64.50
2018-03-19T23:02:06.460Z,64.50
2018-03-19T23:04:46.709Z,64.50
2018-03-19T23:07:15.049Z,64.50
2018-03-19T23:09:43.665Z,64.50
2018-03-19T23:12:12.158Z,64.50
2018-03-19T23:14:40.500Z,64.50
2018-03-19T23:17:08.123Z,64.50
2018-03-19T23:19:35.700Z,64.50
2018-03-19T23:22:03.272Z,64.50
2018-03-19T23:24:30.845Z,64.50
2018-03-19T23:26:58.454Z,64.50
2018-03-19T23:29:26.914Z,64.60
2018-03-19T23:31:54.494Z,64.50
2018-03-19T23:34:22.857Z,64.60
2018-03-19T23:36:50.524Z,64.50
2018-03-19T23:39:18.902Z,64.50
2018-03-19T23:41:47.925Z,64.50
2018-03-19T23:44:16.964Z,64.50
2018-03-19T23:46:44.534Z,64.50
2018-03-19T23:49:12.217Z,64.50
2018-03-19T23:51:40.578Z,64.50
2018-03-19T23:54:08.277Z,64.50
2018-03-19T23:56:36.645Z,64.50
2018-03-19T23:59:04.992Z,64.60
